Wiscasset, Maine
Current Conditions -  °F | °C
As of 6:53 AM on Saturday 20 Dec 2014 (Local Time) from KIWI Reporting Station
Clear Clear  
Wind Chill: 22°   Ceiling: Unl
Heat Index: 22°   Visibility: 10mi
Dew Point: 16°   Wind: 3mph
Humidity: 78%   Direction: NA
Pressure: 30.29"   Gusts: NA
Location:  44°N, 69.66°W
Report Text: KIWI 201153Z AUTO VRB03KT 10SM CLR M06/M09 A3029 RMK AO2 SLP257 T10561089 11033 21056 53020
Loading
Personal Weather Stations






























Interactive Weather Map New forecast layout! Learn more

10-Day Weather Forecast

Advertisements
Track Severe Weather on mobile